Thunder radar more information blitzortung!


Rain radar more information rain snow radar


Visit our other weather sites:

Template documentation
and downloads

And another site



No particular awareness of the weather is required.    There are no Weather-warnings

Nearby METAR Reports

   
LEBL - Barcelona Airpor, Spain
Distance from station: SSE 30 km
Updated: 19-08-2018 09:00
Clear  
Clear  
   Wind: NW 18.5 km/h
Wind: NW 18.5 km/h
Temperature: 23°C
Dew Point: 16°C
Humidity: 65%
Barometer: 1020 hPa
Visibility: More than 10 km
Cloud details: Clear ft
LEBL 190700Z 32010KT 290V350 CAVOK 23/16 Q1020 NOSIG
LELL - Sabadell, Spain
Distance from station: WNW 14 km
Updated: 19-08-2018 09:00
Clear  
Clear  
   Wind: Calm
Wind: Calm
Temperature: 22°C
Dew Point: 18°C
Humidity: 78%
Barometer: 1020 hPa
Visibility: More than 10 km
Cloud details: Clear ft
LELL 190700Z 00000KT CAVOK 22/18 Q1020
LEGE - Girona/Costa Bra, Spain
Distance from station: NE 65 km
Updated: 19-08-2018 09:00
Clear  
Clear  
   Wind: varies 3.7 km/h
Wind: varies 3.7 km/h
Temperature: 20°C
Dew Point: 16°C
Humidity: 78%
Barometer: 1020 hPa
Visibility: More than 10 km
Cloud details: Clear ft
LEGE 190700Z VRB02KT CAVOK 20/16 Q1020
LERS - Reus (civ/Mil), Spain
Distance from station: WSW 96 km
Updated: 19-08-2018 09:00
Clear  
Clear  
   Wind: Calm
Wind: Calm
Temperature: 22°C
Dew Point: 17°C
Humidity: 73%
Barometer: 1020 hPa
Visibility: More than 10 km
Cloud details: Clear ft
LERS 190700Z 00000KT CAVOK 22/17 Q1020
LESU - Pirineus/La Seu, Spain
Distance from station: NW 121 km
Updated: 18-08-2018 19:00
NOT Current
Partly Cloudy  
Partly Cloudy  
   Wind: SW 13 km/h
Wind: SW 13 km/h
Temperature: 23°C
Dew Point: 13°C
Humidity: 53%
Barometer: 1021 hPa
Clouds: Partly Cloudy
Visibility: More than 10 km
Cloud details: Few Clouds 5500 ft,
Partly Cloudy 7000 ft
LESU 181700Z 23007KT 200V260 9999 FEW055TCU SCT070 23/13 Q1021
LEDA - Lleida/Alguaire, Spain
Distance from station: WNW 146 km
Updated: 19-08-2018 09:00
Clear  
Clear  
   Wind: varies 3.7 km/h
Wind: varies 3.7 km/h
Temperature: 18°C
Dew Point: 15°C
Humidity: 83%
Barometer: 1023 hPa
Visibility: More than 10 km
Cloud details: Clear ft
LEDA 190700Z VRB02KT CAVOK 18/15 Q1023
LFMP - Perpignan/Rivesa, France
Distance from station: NNE 150 km
Updated: 19-08-2018 09:00
Clear  
Clear  
   Wind: NW 27.8 km/h
Wind: NW 27.8 km/h
Temperature: 26°C
Dew Point: 13°C
Humidity: 45%
Barometer: 1020 hPa
Visibility: More than 10 km
Cloud details: Clear ft
LFMP 190700Z AUTO 31015KT CAVOK 26/13 Q1020 NOSIG
LEPA - Palma De Mallorca, Spain
Distance from station: S 216 km
Updated: 19-08-2018 09:00
Few Clouds  
Few Clouds  
   Wind: Calm
Wind: Calm
Temperature: 22°C
Dew Point: 19°C
Humidity: 83%
Barometer: 1019 hPa
Clouds: Few Clouds
Visibility: More than 10 km
Cloud details: Few Clouds 2500 ft,
Few Clouds 3500 ft
LEPA 190700Z 00000KT 9999 FEW025 FEW035TCU 22/19 Q1019 NOSIG
 

Script developed by  Saratoga-weather.org Adapted for the template by  Weerstation Leuven

You find our weather info also at:

Weather Underground

AWEKAS